createdAt,value
2023-10-20T00:02:29.048Z,97251.28
2023-10-20T00:05:00.143Z,97242.84
2023-10-20T00:07:33.988Z,97247.63
2023-10-20T00:10:06.996Z,97232.47
2023-10-20T00:12:36.545Z,97254.44
2023-10-20T00:15:10.560Z,97265.56
2023-10-20T00:17:42.624Z,97258.19
2023-10-20T00:20:19.510Z,97251.75
2023-10-20T00:22:51.017Z,97235.69
2023-10-20T00:25:20.022Z,97235.25
2023-10-20T00:27:49.490Z,97216.28
2023-10-20T00:30:20.655Z,97217.13
2023-10-20T00:32:50.162Z,97225.78
2023-10-20T00:35:20.409Z,97212.19
2023-10-20T00:37:52.240Z,97208.50
2023-10-20T00:40:21.374Z,97194.69
2023-10-20T00:42:53.517Z,97190.88
2023-10-20T00:45:22.096Z,97203.59
2023-10-20T00:47:52.769Z,97190.69
2023-10-20T00:50:22.070Z,97186.31
2023-10-20T00:53:07.165Z,97194.69
2023-10-20T00:55:36.169Z,97192.81
2023-10-20T00:58:07.056Z,97194.75
2023-10-20T01:00:36.255Z,97190.16
2023-10-20T01:03:06.116Z,97179.25
2023-10-20T01:05:35.594Z,97173.50
2023-10-20T01:08:06.369Z,97176.19
2023-10-20T01:10:37.218Z,97180.72
2023-10-20T01:13:06.503Z,97175.03
2023-10-20T01:15:36.247Z,97173.16
2023-10-20T01:18:08.521Z,97178.06
2023-10-20T01:20:39.565Z,97177.22
2023-10-20T01:23:19.118Z,97175.19
2023-10-20T01:25:54.455Z,97168.84
2023-10-20T01:28:24.048Z,97157.91
2023-10-20T01:30:53.516Z,97170.47
2023-10-20T01:33:51.986Z,97152.59
2023-10-20T01:36:21.015Z,97149.50
2023-10-20T01:38:52.796Z,97137.25
2023-10-20T01:41:22.907Z,97151.88
2023-10-20T01:44:01.405Z,97145.63
2023-10-20T01:46:32.862Z,97137.81
2023-10-20T01:49:02.664Z,97135.75
2023-10-20T01:51:31.319Z,97137.59
2023-10-20T01:54:07.641Z,97120.16
2023-10-20T01:56:45.526Z,97106.59
2023-10-20T01:59:20.424Z,97107.44
2023-10-20T02:01:56.917Z,97099.34
2023-10-20T02:04:26.490Z,97085.81
2023-10-20T02:06:57.773Z,97075.13
2023-10-20T02:09:40.011Z,97068.69
2023-10-20T02:12:11.941Z,97081.44
2023-10-20T02:14:56.247Z,97076.94
2023-10-20T02:17:33.332Z,97068.25
2023-10-20T02:20:04.302Z,97081.50
2023-10-20T02:22:35.276Z,97074.06
2023-10-20T02:25:07.338Z,97069.97
2023-10-20T02:27:37.779Z,97073.66
2023-10-20T02:30:08.370Z,97076.38
2023-10-20T02:32:46.043Z,97068.16
2023-10-20T02:35:22.949Z,97068.50
2023-10-20T02:37:55.293Z,97052.75
2023-10-20T02:40:40.430Z,97067.91
2023-10-20T02:43:17.039Z,97057.78
2023-10-20T02:45:56.132Z,97058.56
2023-10-20T02:48:28.425Z,97062.72
2023-10-20T02:50:57.608Z,97052.69
2023-10-20T02:53:29.448Z,97056.56
2023-10-20T02:55:58.646Z,97024.69
2023-10-20T02:58:40.531Z,97028.50
2023-10-20T03:01:12.285Z,97040.34
2023-10-20T03:03:48.886Z,97020.03
2023-10-20T03:06:23.768Z,97023.16
2023-10-20T03:08:52.991Z,97025.94
2023-10-20T03:11:21.717Z,97029.44
2023-10-20T03:14:01.728Z,97032.00
2023-10-20T03:16:30.774Z,97046.13
2023-10-20T03:19:02.485Z,97044.28
2023-10-20T03:21:33.206Z,97043.84
2023-10-20T03:24:02.741Z,97042.91
2023-10-20T03:26:32.921Z,97028.81
2023-10-20T03:29:07.282Z,97035.03
2023-10-20T03:31:39.102Z,97027.22
2023-10-20T03:34:09.583Z,97029.34
2023-10-20T03:36:46.431Z,97021.41
2023-10-20T03:39:25.573Z,97022.06
2023-10-20T03:41:56.644Z,97015.53
2023-10-20T03:44:31.498Z,97006.28
2023-10-20T03:47:09.962Z,97017.59
2023-10-20T03:49:40.437Z,96998.66
2023-10-20T03:52:16.755Z,97009.38
2023-10-20T03:54:48.180Z,97007.53
2023-10-20T03:57:20.599Z,97023.69
2023-10-20T03:59:54.899Z,97033.50
2023-10-20T04:02:25.671Z,97005.13
2023-10-20T04:04:57.456Z,97009.69
2023-10-20T04:07:27.936Z,97001.94
2023-10-20T04:10:07.447Z,97011.75
2023-10-20T04:12:52.061Z,97004.75
2023-10-20T04:15:34.967Z,97009.47
2023-10-20T04:18:07.844Z,97012.53
2023-10-20T04:20:45.347Z,97018.91
2023-10-20T04:23:23.056Z,96990.75
2023-10-20T04:25:55.057Z,96999.31
2023-10-20T04:28:29.774Z,96986.84
2023-10-20T04:31:34.156Z,96982.31
2023-10-20T04:34:25.695Z,96985.31
2023-10-20T04:37:13.936Z,96984.31
2023-10-20T04:40:00.877Z,96976.22
2023-10-20T04:42:47.760Z,96966.34
2023-10-20T04:45:38.626Z,96953.53
2023-10-20T04:48:40.763Z,96960.38
2023-10-20T04:51:21.416Z,96957.38
2023-10-20T04:54:08.709Z,96946.53
2023-10-20T04:57:19.087Z,96948.00
2023-10-20T05:00:01.320Z,96943.13
2023-10-20T05:02:35.490Z,96945.72
2023-10-20T05:05:24.289Z,96951.31
2023-10-20T05:07:58.036Z,96959.50
2023-10-20T05:10:34.326Z,96955.03
2023-10-20T05:13:08.745Z,96957.28
2023-10-20T05:15:49.689Z,96950.22
2023-10-20T05:18:27.850Z,96939.75
2023-10-20T05:20:57.705Z,96939.38
2023-10-20T05:23:27.169Z,96936.06
2023-10-20T05:25:57.440Z,96930.97
2023-10-20T05:28:29.061Z,96934.84
2023-10-20T05:30:59.889Z,96919.53
2023-10-20T05:33:34.212Z,96947.88
2023-10-20T05:36:07.317Z,96929.41
2023-10-20T05:38:39.001Z,96921.44
2023-10-20T05:41:08.479Z,96920.72
2023-10-20T05:43:40.114Z,96916.25
2023-10-20T05:46:10.675Z,96926.50
2023-10-20T05:48:39.726Z,96932.22
2023-10-20T05:51:10.012Z,96922.81
2023-10-20T05:53:39.475Z,96918.28
2023-10-20T05:56:16.946Z,96935.53
2023-10-20T05:58:55.334Z,96937.81
2023-10-20T06:01:24.414Z,96929.56
2023-10-20T06:03:59.677Z,96931.41
2023-10-20T06:06:38.670Z,96924.88
2023-10-20T06:09:10.450Z,96923.50
2023-10-20T06:11:39.771Z,96927.72
2023-10-20T06:14:08.690Z,96932.22
2023-10-20T06:16:46.101Z,96917.41
2023-10-20T06:19:25.189Z,96922.16
2023-10-20T06:21:57.133Z,96919.63
2023-10-20T06:24:28.467Z,96895.38
2023-10-20T06:27:04.110Z,96905.84
2023-10-20T06:29:47.394Z,96921.84
2023-10-20T06:32:29.532Z,96927.75
2023-10-20T06:35:01.927Z,96924.06
2023-10-20T06:37:59.394Z,96922.16
2023-10-20T06:40:28.846Z,96906.25
2023-10-20T06:42:58.199Z,96897.66
2023-10-20T06:45:34.804Z,96892.97
2023-10-20T06:48:08.077Z,96899.97
2023-10-20T06:50:37.017Z,96898.28
2023-10-20T06:53:07.872Z,96889.81
2023-10-20T06:55:59.941Z,96884.69
2023-10-20T06:58:26.310Z,96894.41
2023-10-20T07:00:54.819Z,96890.66
2023-10-20T07:03:26.917Z,96895.66
2023-10-20T07:05:58.649Z,96883.97
2023-10-20T07:08:31.566Z,96880.84
2023-10-20T07:11:07.269Z,96862.84
2023-10-20T07:13:36.791Z,96868.50
2023-10-20T07:16:08.274Z,96857.41
2023-10-20T07:18:45.539Z,96864.19
2023-10-20T07:21:30.688Z,96860.25
2023-10-20T07:24:11.194Z,96857.25
2023-10-20T07:26:39.763Z,96849.22
2023-10-20T07:29:18.623Z,96847.31
2023-10-20T07:31:48.608Z,96848.41
2023-10-20T07:34:20.833Z,96846.97
2023-10-20T07:36:50.273Z,96841.19
2023-10-20T07:39:19.766Z,96822.88
2023-10-20T07:41:54.682Z,96843.19
2023-10-20T07:44:26.440Z,96823.06
2023-10-20T07:47:03.465Z,96819.69
2023-10-20T07:49:31.829Z,96822.63
2023-10-20T07:52:03.210Z,96800.81
2023-10-20T07:54:35.427Z,96798.88
2023-10-20T07:57:06.926Z,96789.09
2023-10-20T07:59:36.623Z,96780.59
2023-10-20T08:02:06.788Z,96777.13
2023-10-20T08:04:39.018Z,96784.16
2023-10-20T08:07:18.800Z,96785.69
2023-10-20T08:09:50.926Z,96791.38
2023-10-20T08:12:26.232Z,96777.38
2023-10-20T08:14:57.970Z,96778.34
2023-10-20T08:17:29.007Z,96761.91
2023-10-20T08:20:01.044Z,96766.78
2023-10-20T08:22:46.086Z,96765.84
2023-10-20T08:25:29.409Z,96758.03
2023-10-20T08:28:07.488Z,96738.44
2023-10-20T08:30:41.741Z,96740.50
2023-10-20T08:33:10.647Z,96755.53
2023-10-20T08:35:39.824Z,96748.16
2023-10-20T08:38:44.083Z,96733.78
2023-10-20T08:41:26.606Z,96728.03
2023-10-20T08:43:57.799Z,96724.50
2023-10-20T08:46:35.348Z,96715.59
2023-10-20T08:49:05.276Z,96702.13
2023-10-20T08:51:40.008Z,96685.81
2023-10-20T08:54:10.874Z,96689.91
2023-10-20T08:56:44.300Z,96680.38
2023-10-20T08:59:16.639Z,96680.16
2023-10-20T09:01:48.587Z,96663.34
2023-10-20T09:04:23.509Z,96680.69
2023-10-20T09:06:56.072Z,96678.53
2023-10-20T09:09:27.073Z,96648.41
2023-10-20T09:12:01.572Z,96647.47
2023-10-20T09:14:30.687Z,96629.31
2023-10-20T09:17:02.926Z,96670.50
2023-10-20T09:19:34.337Z,96685.28
2023-10-20T09:22:05.215Z,96687.25
2023-10-20T09:24:36.726Z,96674.72
2023-10-20T09:27:15.939Z,96685.34
2023-10-20T09:29:44.719Z,96669.75
2023-10-20T09:32:22.537Z,96663.00
2023-10-20T09:34:52.386Z,96653.06
2023-10-20T09:37:26.068Z,96651.97
2023-10-20T09:40:06.540Z,96670.09
2023-10-20T09:42:48.077Z,96668.78
2023-10-20T09:45:18.326Z,96691.19
2023-10-20T09:47:54.383Z,96692.38
2023-10-20T09:50:25.495Z,96682.09
2023-10-20T09:52:57.089Z,96678.91
2023-10-20T09:55:26.750Z,96684.84
2023-10-20T09:58:01.973Z,96670.28
2023-10-20T10:00:33.480Z,96676.75
2023-10-20T10:03:03.514Z,96654.31
2023-10-20T10:05:35.609Z,96681.38
2023-10-20T10:08:07.837Z,96684.09
2023-10-20T10:10:37.625Z,96680.81
2023-10-20T10:13:12.733Z,96698.13
2023-10-20T10:15:42.199Z,96681.38
2023-10-20T10:18:24.219Z,96694.41
2023-10-20T10:20:56.020Z,96706.56
2023-10-20T10:23:34.860Z,96690.31
2023-10-20T10:26:19.362Z,96701.69
2023-10-20T10:28:54.182Z,96696.00
2023-10-20T10:31:22.889Z,96693.03
2023-10-20T10:34:11.426Z,96699.00
2023-10-20T10:36:51.399Z,96708.69
2023-10-20T10:39:29.601Z,96686.53
2023-10-20T10:42:06.488Z,96682.22
2023-10-20T10:44:40.665Z,96691.41
2023-10-20T10:47:24.385Z,96690.31
2023-10-20T10:49:56.488Z,96692.72
2023-10-20T10:52:24.774Z,96687.59
2023-10-20T10:54:58.837Z,96676.50
2023-10-20T10:57:41.746Z,96669.19
2023-10-20T11:00:24.122Z,96667.03
2023-10-20T11:02:52.704Z,96656.75
2023-10-20T11:05:36.373Z,96661.34
2023-10-20T11:08:14.992Z,96675.44
2023-10-20T11:10:48.346Z,96663.53
2023-10-20T11:13:24.359Z,96674.91
2023-10-20T11:16:08.148Z,96677.56
2023-10-20T11:18:39.834Z,96666.22
2023-10-20T11:21:16.178Z,96671.63
2023-10-20T11:23:56.059Z,96671.38
2023-10-20T11:26:26.587Z,96677.03
2023-10-20T11:28:59.331Z,96674.63
2023-10-20T11:31:34.057Z,96660.00
2023-10-20T11:34:06.336Z,96657.84
2023-10-20T11:36:35.622Z,96638.09
2023-10-20T11:39:12.322Z,96644.31
2023-10-20T11:41:43.587Z,96648.94
2023-10-20T11:44:23.148Z,96646.50
2023-10-20T11:46:58.986Z,96668.44
2023-10-20T11:49:30.877Z,96670.56
2023-10-20T11:52:13.881Z,96660.00
2023-10-20T11:54:54.003Z,96671.88
2023-10-20T11:57:26.715Z,96663.53
2023-10-20T11:59:55.026Z,96677.31
2023-10-20T12:02:38.875Z,96654.59
2023-10-20T12:05:11.432Z,96662.44
2023-10-20T12:07:41.362Z,96655.94
2023-10-20T12:10:21.348Z,96681.94
2023-10-20T12:12:54.252Z,96678.94
2023-10-20T12:15:25.245Z,96671.03
2023-10-20T12:17:56.090Z,96675.66
2023-10-20T12:20:26.430Z,96679.44
2023-10-20T12:23:00.110Z,96672.13
2023-10-20T12:25:31.697Z,96683.19
2023-10-20T12:28:10.221Z,96671.81
2023-10-20T12:30:40.588Z,96664.78
2023-10-20T12:33:20.816Z,96685.88
2023-10-20T12:35:52.691Z,96673.50
2023-10-20T12:38:28.983Z,96677.00
2023-10-20T12:40:58.028Z,96677.81
2023-10-20T12:43:29.191Z,96664.84
2023-10-20T12:46:00.355Z,96682.88
2023-10-20T12:48:36.277Z,96686.97
2023-10-20T12:51:09.717Z,96693.16
2023-10-20T12:53:38.310Z,96688.81
2023-10-20T12:56:09.143Z,96674.56
2023-10-20T12:58:43.178Z,96669.06
2023-10-20T13:01:25.165Z,96699.41
2023-10-20T13:04:06.004Z,96695.09
2023-10-20T13:06:49.819Z,96689.41
2023-10-20T13:09:29.968Z,96695.41
2023-10-20T13:11:59.112Z,96692.59
2023-10-20T13:14:28.014Z,96696.97
2023-10-20T13:19:54.893Z,96700.91
2023-10-20T13:22:28.513Z,96710.03
2023-10-20T13:25:04.995Z,96708.53
2023-10-20T13:27:36.743Z,96709.09
2023-10-20T13:30:16.792Z,96725.09
2023-10-20T13:32:45.070Z,96722.94
2023-10-20T13:35:26.341Z,96693.59
2023-10-20T13:37:56.310Z,96737.03
2023-10-20T13:40:35.664Z,96722.13
2023-10-20T13:43:06.476Z,96732.44
2023-10-20T13:45:39.029Z,96719.34
2023-10-20T13:48:10.561Z,96723.66
2023-10-20T13:50:43.482Z,96707.94
2023-10-20T13:53:15.863Z,96712.53
2023-10-20T13:55:46.050Z,96690.50
2023-10-20T13:58:23.153Z,96698.97
2023-10-20T14:00:54.919Z,96701.88
2023-10-20T14:03:28.359Z,96722.00
2023-10-20T14:06:10.444Z,96708.72
2023-10-20T14:08:42.505Z,96710.38
2023-10-20T14:11:15.074Z,96710.56
2023-10-20T14:13:48.635Z,96720.88
2023-10-20T14:16:21.727Z,96694.53
2023-10-20T14:19:05.732Z,96677.59
2023-10-20T14:21:52.006Z,96696.31
2023-10-20T14:24:22.575Z,96679.31
2023-10-20T14:26:59.197Z,96678.16
2023-10-20T14:29:30.249Z,96674.84
2023-10-20T14:31:58.507Z,96695.13
2023-10-20T14:34:27.096Z,96730.00
2023-10-20T14:37:02.524Z,96711.91
2023-10-20T14:39:31.218Z,96734.41
2023-10-20T14:42:03.067Z,96728.66
2023-10-20T14:44:40.917Z,96725.94
2023-10-20T14:47:12.473Z,96728.09
2023-10-20T14:49:45.054Z,96745.31
2023-10-20T14:52:30.463Z,96732.66
2023-10-20T14:55:08.232Z,96713.50
2023-10-20T14:57:42.385Z,96716.50
2023-10-20T15:00:19.981Z,96697.72
2023-10-20T15:02:53.079Z,96665.06
2023-10-20T15:05:27.315Z,96651.75
2023-10-20T15:08:05.216Z,96678.06
2023-10-20T15:10:34.215Z,96713.19
2023-10-20T15:13:06.698Z,96763.03
2023-10-20T15:15:36.237Z,96783.69
2023-10-20T15:18:13.716Z,96788.09
2023-10-20T15:20:53.799Z,96822.00
2023-10-20T15:23:31.116Z,96843.97
2023-10-20T15:26:01.401Z,96849.44
2023-10-20T15:28:31.817Z,96830.03
2023-10-20T15:31:11.023Z,96836.06
2023-10-20T15:33:41.842Z,96855.19
2023-10-20T15:36:12.218Z,96850.09
2023-10-20T15:38:50.459Z,96839.41
2023-10-20T15:41:22.991Z,96854.09
2023-10-20T15:43:58.088Z,96846.00
2023-10-20T15:46:29.889Z,96848.94
2023-10-20T15:48:58.453Z,96830.56
2023-10-20T15:51:29.387Z,96833.06
2023-10-20T15:54:04.183Z,96863.38
2023-10-20T15:56:33.333Z,96862.88
2023-10-20T15:59:04.506Z,96873.28
2023-10-20T16:01:35.760Z,96886.66
2023-10-20T16:04:14.956Z,96878.84
2023-10-20T16:06:48.349Z,96888.81
2023-10-20T16:09:33.973Z,96871.88
2023-10-20T16:12:05.343Z,96881.13
2023-10-20T16:14:33.586Z,96890.25
2023-10-20T16:17:02.464Z,96885.16
2023-10-20T16:19:39.384Z,96893.56
2023-10-20T16:22:09.849Z,96913.06
2023-10-20T16:24:52.205Z,96923.59
2023-10-20T16:27:25.914Z,96918.50
2023-10-20T16:30:06.678Z,96934.50
2023-10-20T16:32:47.838Z,96938.06
2023-10-20T16:35:22.172Z,96927.47
2023-10-20T16:37:57.722Z,96936.19
2023-10-20T16:40:46.121Z,96940.28
2023-10-20T16:43:19.208Z,96921.84
2023-10-20T16:45:53.024Z,96913.44
2023-10-20T16:48:26.731Z,96931.84
2023-10-20T16:51:01.754Z,96944.31
2023-10-20T16:53:47.898Z,96938.91
2023-10-20T16:56:38.214Z,96949.19
2023-10-20T16:59:13.475Z,96945.97
2023-10-20T17:01:46.776Z,96956.81
2023-10-20T17:04:22.474Z,96954.56
2023-10-20T17:06:56.189Z,96974.13
2023-10-20T17:09:35.306Z,96974.69
2023-10-20T17:12:18.343Z,96986.88
2023-10-20T17:15:00.346Z,96983.66
2023-10-20T17:17:34.430Z,96995.84
2023-10-20T17:20:08.079Z,96998.84
2023-10-20T17:22:48.254Z,97002.63
2023-10-20T17:25:32.706Z,97014.81
2023-10-20T17:28:06.780Z,97012.63
2023-10-20T17:30:47.874Z,97009.38
2023-10-20T17:33:19.543Z,97013.44
2023-10-20T17:35:53.453Z,97028.38
2023-10-20T17:38:24.810Z,97016.44
2023-10-20T17:40:59.312Z,97010.75
2023-10-20T17:43:43.398Z,97010.22
2023-10-20T17:46:22.199Z,97007.47
2023-10-20T17:48:57.131Z,97020.75
2023-10-20T17:51:38.549Z,97019.09
2023-10-20T17:54:28.291Z,97017.72
2023-10-20T17:57:13.940Z,97007.13
2023-10-20T18:00:07.633Z,97013.91
2023-10-20T18:02:57.673Z,97013.94
2023-10-20T18:05:38.253Z,97005.25
2023-10-20T18:08:19.936Z,97007.13
2023-10-20T18:10:52.619Z,97019.88
2023-10-20T18:13:28.425Z,97019.88
2023-10-20T18:16:05.791Z,97016.88
2023-10-20T18:18:46.407Z,97023.16
2023-10-20T18:21:28.892Z,97019.63
2023-10-20T18:24:05.902Z,97017.72
2023-10-20T18:26:40.103Z,97006.59
2023-10-20T18:32:13.821Z,97007.97
2023-10-20T18:35:02.206Z,97016.34
2023-10-20T18:37:35.438Z,97005.00
2023-10-20T18:40:11.966Z,97011.22
2023-10-20T18:42:49.050Z,96996.59
2023-10-20T18:45:21.292Z,97002.00
2023-10-20T18:47:58.614Z,96984.91
2023-10-20T18:50:32.310Z,96978.97
2023-10-20T18:53:07.550Z,96999.56
2023-10-20T18:55:44.716Z,97017.19
2023-10-20T18:58:27.129Z,97017.16
2023-10-20T19:01:08.000Z,97044.25
2023-10-20T19:04:04.154Z,97049.94
2023-10-20T19:06:40.534Z,97050.78
2023-10-20T19:09:22.276Z,97049.41
2023-10-20T19:11:53.738Z,97047.53
2023-10-20T19:14:35.363Z,97051.06
2023-10-20T19:17:15.556Z,97050.25
2023-10-20T19:19:53.408Z,97055.13
2023-10-20T19:22:45.228Z,97043.44
2023-10-20T19:25:21.904Z,97064.06
2023-10-20T19:28:09.412Z,97045.09
2023-10-20T19:30:42.726Z,97062.13
2023-10-20T19:33:20.258Z,97070.78
2023-10-20T19:35:57.163Z,97079.16
2023-10-20T19:38:31.330Z,97079.94
2023-10-20T19:41:06.359Z,97089.72
2023-10-20T19:43:51.598Z,97091.91
2023-10-20T19:46:29.315Z,97080.75
2023-10-20T19:49:05.669Z,97090.25
2023-10-20T19:51:56.940Z,97078.31
2023-10-20T19:54:43.426Z,97079.69
2023-10-20T19:57:17.541Z,97073.72
2023-10-20T20:00:02.795Z,97069.13
2023-10-20T20:03:03.314Z,97067.19
2023-10-20T20:05:47.223Z,97069.63
2023-10-20T20:08:42.512Z,97076.91
2023-10-20T20:11:13.672Z,97068.25
2023-10-20T20:13:50.564Z,97061.50
2023-10-20T20:16:28.188Z,97059.03
2023-10-20T20:18:59.876Z,97067.16
2023-10-20T20:21:32.610Z,97086.38
2023-10-20T20:24:23.588Z,97079.31
2023-10-20T20:26:54.688Z,97082.09
2023-10-20T20:29:34.973Z,97076.94
2023-10-20T20:32:06.593Z,97067.16
2023-10-20T20:34:43.603Z,97076.38
2023-10-20T20:37:13.985Z,97090.47
2023-10-20T20:39:46.389Z,97089.66
2023-10-20T20:42:14.955Z,97092.88
2023-10-20T20:44:51.270Z,97099.13
2023-10-20T20:47:24.611Z,97094.25
2023-10-20T20:50:13.240Z,97086.09
2023-10-20T20:52:51.036Z,97081.72
2023-10-20T20:55:30.149Z,97078.75
2023-10-20T20:58:12.159Z,97076.91
2023-10-20T21:00:46.781Z,97071.53
2023-10-20T21:03:22.452Z,97049.00
2023-10-20T21:06:03.872Z,97048.22
2023-10-20T21:08:48.015Z,97049.50
2023-10-20T21:11:20.389Z,97053.56
2023-10-20T21:13:52.808Z,97062.75
2023-10-20T21:16:24.620Z,97068.69
2023-10-20T21:18:55.902Z,97062.25
2023-10-20T21:21:32.696Z,97083.09
2023-10-20T21:24:06.383Z,97088.97
2023-10-20T21:26:45.125Z,97086.50
2023-10-20T21:29:25.822Z,97097.94
2023-10-20T21:32:00.767Z,97088.19
2023-10-20T21:34:37.336Z,97093.59
2023-10-20T21:37:05.761Z,97088.13
2023-10-20T21:39:35.624Z,97105.19
2023-10-20T21:42:12.173Z,97103.53
2023-10-20T21:44:41.746Z,97115.19
2023-10-20T21:47:14.074Z,97114.16
2023-10-20T21:49:44.816Z,97108.69
2023-10-20T21:52:15.112Z,97094.53
2023-10-20T21:54:45.481Z,97108.16
2023-10-20T21:57:17.511Z,97108.66
2023-10-20T21:59:45.710Z,97108.66
2023-10-20T22:02:25.180Z,97109.44
2023-10-20T22:04:54.257Z,97124.81
2023-10-20T22:07:26.615Z,97126.19
2023-10-20T22:12:56.146Z,97129.66
2023-10-20T22:15:30.421Z,97128.56
2023-10-20T22:18:04.347Z,97129.47
2023-10-20T22:20:33.771Z,97121.25
2023-10-20T22:23:05.821Z,97124.56
2023-10-20T22:25:43.454Z,97128.38
2023-10-20T22:28:33.094Z,97126.13
2023-10-20T22:31:04.252Z,97135.13
2023-10-20T22:33:40.788Z,97142.94
2023-10-20T22:36:11.547Z,97146.53
2023-10-20T22:38:43.585Z,97132.63
2023-10-20T22:41:14.136Z,97142.97
2023-10-20T22:44:00.235Z,97161.88
2023-10-20T22:46:34.320Z,97151.88
2023-10-20T22:49:05.997Z,97148.84
2023-10-20T22:51:37.895Z,97152.72
2023-10-20T22:54:08.066Z,97157.03
2023-10-20T22:56:38.852Z,97151.25
2023-10-20T22:59:24.038Z,97171.28
2023-10-20T23:01:57.656Z,97155.03
2023-10-20T23:04:29.556Z,97162.38
2023-10-20T23:06:58.962Z,97162.97
2023-10-20T23:09:30.076Z,97155.03
2023-10-20T23:11:58.945Z,97179.13
2023-10-20T23:14:37.863Z,97171.78
2023-10-20T23:17:18.279Z,97170.44
2023-10-20T23:19:47.519Z,97170.38
2023-10-20T23:22:24.451Z,97171.19
2023-10-20T23:24:54.388Z,97172.81
2023-10-20T23:27:22.862Z,97160.59
2023-10-20T23:29:52.921Z,97164.94
2023-10-20T23:32:21.853Z,97177.44
2023-10-20T23:34:57.251Z,97172.22
2023-10-20T23:37:37.154Z,97197.94
2023-10-20T23:40:12.795Z,97200.34
2023-10-20T23:42:43.967Z,97211.56
2023-10-20T23:45:24.348Z,97204.84
2023-10-20T23:47:58.217Z,97215.56
2023-10-20T23:50:32.914Z,97206.16
2023-10-20T23:53:10.612Z,97204.75
2023-10-20T23:55:40.047Z,97198.91
2023-10-20T23:58:08.921Z,97195.53
